This is the latest recevied weather packets stored in our database for station/object KHOP. If no packets are shown the sender has not sent any weather packets the latest 10 day(s).
| Time | Temp. | Humidity | Pressure | Rain* | Wind** | Luminosity | Snow |
|---|---|---|---|---|---|---|---|
| 1777751615 | 16.67° C | 39% | 1015.6 hPa | - | - | - | - |
| 1777751015 | 15.56° C | 38% | 1015.6 hPa | - | - | - | - |
| 1777750414 | 15.56° C | 38% | 1015.6 hPa | - | - | - | - |
| 1777749818 | 15.56° C | 38% | 1015.6 hPa | - | - | - | - |
| 1777749214 | 15.56° C | 38% | 1015.6 hPa | - | - | - | - |
| 1777748615 | 17.78° C | 36% | 1016.3 hPa | - | - | - | - |
| 1777748015 | 17.78° C | 36% | 1016.3 hPa | - | - | - | - |
| 1777747412 | 17.78° C | 36% | 1016.3 hPa | - | - | - | - |
| 1777746815 | 17.78° C | 36% | 1016.3 hPa | - | - | - | - |
| 1777746214 | 15.56° C | 38% | 1016.3 hPa | - | - | - | - |
| 1777745613 | 15.56° C | 36% | 1016.3 hPa | - | - | - | - |
| 1777745016 | 15.56° C | 36% | 1016.3 hPa | - | - | - | - |
| 1777744416 | 16.67° C | 33% | 1016.9 hPa | - | - | - | - |
| 1777743812 | 16.67° C | 33% | 1016.9 hPa | - | - | - | - |
| 1777743214 | 16.67° C | 33% | 1016.9 hPa | - | - | - | - |
| 1777742616 | 16.67° C | 33% | 1016.9 hPa | - | - | - | - |
| 1777742011 | 16.67° C | 33% | 1016.9 hPa | - | - | - | - |
| 1777741415 | 16.67° C | 33% | 1016.9 hPa | - | - | - | - |
| 1777740818 | 15.56° C | 38% | 1017.3 hPa | - | - | - | - |
| 1777740217 | 15.56° C | 38% | 1017.3 hPa | - | - | - | - |
| 1777739613 | 15.56° C | 38% | 1017.3 hPa | - | - | - | - |
| 1777739012 | 15.56° C | 38% | 1017.3 hPa | - | - | - | - |
| 1777738414 | 15.56° C | 38% | 1017.3 hPa | - | - | - | - |
| 1777737817 | 15° C | 41% | 1017.3 hPa | - | - | - | - |
| 1777737340 | 15° C | 41% | 1017.3 hPa | - | - | - | - |
* Rain since midnight (hover to see other rain measurements)
** Current wind speed in m/s (hover to see current wind gust speed)